Time;durP1;ratioP1;P1;durP2;ratioP2;P2;SDS_P1;SDS_P2;PMS_P1;PMS_P2;Temp;Humidity;BMP_temperature;BMP_pressure;BME280_temperature;BME280_humidity;BME280_pressure;Samples;Min_cycle;Max_cycle;Signal;HPM_P1;HPM_P2
2021/08/22 00:00:05;;;;;;;6.97;4.80;;;18.70;92.70;;;;;;5116113;28;20036;-82
2021/08/22 00:02:30;;;;;;;5.85;5.30;;;18.70;92.70;;;;;;5113601;28;20059;-83
2021/08/22 00:04:57;;;;;;;6.50;3.88;;;18.80;92.80;;;;;;5116289;28;20031;-82
2021/08/22 00:07:23;;;;;;;6.93;4.45;;;18.70;92.80;;;;;;5102619;28;20031;-83
2021/08/22 00:09:49;;;;;;;7.82;4.25;;;18.70;92.80;;;;;;5116181;28;20045;-84
2021/08/22 00:12:15;;;;;;;5.25;4.40;;;18.60;92.80;;;;;;5114011;28;20027;-83
2021/08/22 00:14:42;;;;;;;5.90;4.05;;;18.50;92.90;;;;;;5116747;28;20453;-82
2021/08/22 00:17:08;;;;;;;6.28;5.30;;;18.50;93.00;;;;;;5090320;28;20411;-82
2021/08/22 00:19:33;;;;;;;5.65;5.07;;;18.40;93.10;;;;;;5082956;28;20039;-84
2021/08/22 00:21:59;;;;;;;4.72;4.13;;;18.30;93.20;;;;;;5119505;28;20463;-82
2021/08/22 00:24:25;;;;;;;6.13;4.95;;;18.30;93.20;;;;;;5109817;28;20388;-82
2021/08/22 00:26:51;;;;;;;4.93;4.13;;;18.30;93.30;;;;;;5085162;28;20488;-82
2021/08/22 00:29:17;;;;;;;6.50;4.85;;;18.20;93.30;;;;;;5109795;28;20028;-81
2021/08/22 00:31:43;;;;;;;5.38;4.13;;;18.20;93.40;;;;;;5100838;28;20036;-81
2021/08/22 00:34:09;;;;;;;4.20;3.60;;;18.20;93.40;;;;;;5110626;28;20031;-82
2021/08/22 00:36:35;;;;;;;6.30;4.82;;;18.30;93.40;;;;;;5115433;28;20019;-85
2021/08/22 00:39:01;;;;;;;5.95;4.90;;;18.30;93.40;;;;;;5119901;28;20080;-82
2021/08/22 00:41:29;;;;;;;5.22;4.55;;;18.30;93.40;;;;;;5114922;28;20111;-82
2021/08/22 00:43:55;;;;;;;4.22;3.88;;;18.40;93.40;;;;;;5121141;28;20034;-82
2021/08/22 00:46:20;;;;;;;6.22;3.50;;;18.30;93.30;;;;;;5097396;28;20391;-81
2021/08/22 00:48:47;;;;;;;7.72;4.38;;;18.30;93.20;;;;;;5099016;28;20387;-83
2021/08/22 00:51:18;;;;;;;5.43;4.78;;;18.20;93.30;;;;;;5091158;28;20024;-84
2021/08/22 00:53:46;;;;;;;8.27;6.20;;;18.20;93.30;;;;;;5113989;28;20012;-84
2021/08/22 00:56:15;;;;;;;5.93;5.25;;;18.10;93.30;;;;;;5099336;28;20024;-84
2021/08/22 00:58:44;;;;;;;5.80;4.00;;;18.10;93.30;;;;;;5120635;28;20038;-83
2021/08/22 01:01:16;;;;;;;5.28;4.60;;;18.00;93.30;;;;;;5120648;28;20104;-83
2021/08/22 01:03:53;;;;;;;7.32;4.80;;;18.00;93.40;;;;;;5113407;28;20051;-83
2021/08/22 01:06:40;;;;;;;6.35;5.18;;;17.90;93.40;;;;;;5105481;28;20055;-84
2021/08/22 01:09:19;;;;;;;4.30;3.90;;;17.90;93.40;;;;;;5119652;28;20131;-81
2021/08/22 01:11:46;;;;;;;6.80;5.53;;;17.90;93.40;;;;;;5118738;28;20102;-82
2021/08/22 01:14:14;;;;;;;6.88;3.92;;;17.90;93.40;;;;;;5120488;27;20052;-83
2021/08/22 01:16:45;;;;;;;6.63;4.53;;;17.80;93.50;;;;;;5118952;28;20023;-85
2021/08/22 01:19:41;;;;;;;4.35;3.80;;;17.80;93.50;;;;;;5118922;28;20106;-83
2021/08/22 01:22:08;;;;;;;5.80;4.13;;;17.80;93.60;;;;;;5118643;28;20034;-84
2021/08/22 01:24:38;;;;;;;7.47;4.65;;;17.70;93.60;;;;;;5119336;28;20118;-84
2021/08/22 01:27:06;;;;;;;6.57;3.85;;;17.80;93.70;;;;;;5117788;28;20020;-82
2021/08/22 01:29:39;;;;;;;7.88;4.60;;;17.80;93.70;;;;;;5100661;28;20101;-83
2021/08/22 01:32:07;;;;;;;8.45;5.60;;;17.70;93.60;;;;;;5119337;28;20016;-82
2021/08/22 01:34:34;;;;;;;5.78;4.43;;;17.70;93.60;;;;;;5119725;28;20053;-82
2021/08/22 01:37:01;;;;;;;4.82;4.15;;;17.70;93.60;;;;;;5119270;28;20569;-83
2021/08/22 01:39:27;;;;;;;4.30;3.88;;;17.80;93.60;;;;;;5102080;28;20040;-83
2021/08/22 01:41:54;;;;;;;4.90;4.43;;;17.80;93.60;;;;;;5102215;28;20459;-82
2021/08/22 01:44:20;;;;;;;6.70;4.47;;;17.80;93.60;;;;;;5119782;28;20038;-82
2021/08/22 01:46:47;;;;;;;5.90;4.18;;;17.80;93.60;;;;;;5102220;28;20023;-84
2021/08/22 01:49:13;;;;;;;6.97;4.65;;;17.80;93.60;;;;;;5082930;28;20048;-82
2021/08/22 01:51:40;;;;;;;6.13;4.47;;;17.80;93.50;;;;;;5095639;28;20086;-82
2021/08/22 01:54:09;;;;;;;6.78;5.50;;;17.80;93.50;;;;;;5096847;28;20024;-82
2021/08/22 01:56:35;;;;;;;6.57;4.72;;;17.90;93.50;;;;;;5129099;27;20469;-84
2021/08/22 01:59:05;;;;;;;5.80;4.65;;;17.90;93.50;;;;;;5100169;28;20080;-82
2021/08/22 02:01:31;;;;;;;5.85;5.25;;;17.90;93.50;;;;;;5116300;28;20032;-82
2021/08/22 02:04:23;;;;;;;6.32;4.93;;;17.80;93.50;;;;;;5117491;28;20020;-80
2021/08/22 02:07:03;;;;;;;6.50;5.80;;;17.90;93.60;;;;;;5113186;28;20402;-83
2021/08/22 02:09:58;;;;;;;9.05;6.38;;;17.90;93.60;;;;;;5095294;28;20059;-82
2021/08/22 02:12:24;;;;;;;8.25;6.53;;;18.00;93.60;;;;;;5095089;28;20055;-81
2021/08/22 02:15:05;;;;;;;7.80;7.00;;;18.00;93.50;;;;;;5097120;28;20486;-82
2021/08/22 02:17:35;;;;;;;7.82;7.03;;;18.00;93.40;;;;;;5095289;28;20031;-83
2021/08/22 02:20:03;;;;;;;7.15;6.35;;;18.10;93.40;;;;;;5096628;28;20040;-83
2021/08/22 02:22:31;;;;;;;9.52;6.93;;;18.10;93.30;;;;;;5097344;28;20028;-84
2021/08/22 02:24:58;;;;;;;7.90;7.05;;;18.00;93.30;;;;;;5097556;28;20380;-83
2021/08/22 02:27:29;;;;;;;7.95;7.07;;;17.90;93.30;;;;;;5097864;28;20103;-83
2021/08/22 02:29:55;;;;;;;8.65;7.75;;;17.80;93.40;;;;;;5097363;28;20089;-82
2021/08/22 02:32:23;;;;;;;10.55;7.75;;;17.70;93.50;;;;;;5098094;28;20074;-84
2021/08/22 02:34:51;;;;;;;11.40;9.30;;;17.70;93.60;;;;;;5105466;28;20041;-86
2021/08/22 02:37:17;;;;;;;10.20;9.18;;;17.60;93.60;;;;;;5117155;28;20032;-82
2021/08/22 02:39:44;;;;;;;11.80;9.20;;;17.60;93.70;;;;;;5099317;28;20375;-81
2021/08/22 02:42:10;;;;;;;10.95;9.77;;;17.60;93.80;;;;;;5098794;28;20075;-80
2021/08/22 02:44:35;;;;;;;12.13;10.82;;;17.60;93.80;;;;;;5115490;28;20020;-81
2021/08/22 02:47:01;;;;;;;12.00;10.38;;;17.60;93.90;;;;;;5116004;28;20030;-82
2021/08/22 02:49:27;;;;;;;14.27;11.30;;;17.60;93.90;;;;;;5100423;28;20387;-82
2021/08/22 02:51:53;;;;;;;13.05;11.20;;;17.70;93.80;;;;;;5099993;28;20028;-86
2021/08/22 02:54:18;;;;;;;15.45;12.70;;;17.80;93.80;;;;;;5099984;28;20023;-81
2021/08/22 02:56:44;;;;;;;13.48;12.07;;;17.80;93.70;;;;;;5083879;28;20467;-81
2021/08/22 02:59:09;;;;;;;14.88;13.02;;;17.90;93.70;;;;;;5082023;28;20032;-81
2021/08/22 03:01:35;;;;;;;15.93;14.23;;;17.90;93.70;;;;;;5117134;28;20465;-82
2021/08/22 03:04:01;;;;;;;16.55;14.32;;;18.00;93.70;;;;;;5115590;28;20487;-81
2021/08/22 03:06:26;;;;;;;18.92;16.60;;;18.00;93.60;;;;;;5115722;28;20027;-81
2021/08/22 03:08:52;;;;;;;21.48;17.25;;;18.10;93.60;;;;;;5098336;28;20031;-81
2021/08/22 03:11:19;;;;;;;20.73;16.75;;;18.10;93.60;;;;;;5115629;28;20443;-81
2021/08/22 03:13:48;;;;;;;22.73;18.02;;;18.10;93.50;;;;;;5120282;28;20051;-82
2021/08/22 03:16:15;;;;;;;22.92;19.65;;;18.10;93.50;;;;;;5124266;28;20023;-81
2021/08/22 03:18:40;;;;;;;21.02;17.80;;;18.10;93.60;;;;;;5114831;28;20028;-82
2021/08/22 03:21:06;;;;;;;22.42;19.13;;;18.00;93.80;;;;;;5097238;28;20043;-82
2021/08/22 03:23:32;;;;;;;20.85;18.65;;;18.00;93.60;;;;;;5093779;28;20031;-81
2021/08/22 03:25:57;;;;;;;22.58;18.98;;;18.10;93.70;;;;;;5093665;28;20442;-84
2021/08/22 03:28:23;;;;;;;22.23;19.67;;;18.10;93.70;;;;;;5077440;28;20104;-81
2021/08/22 03:30:51;;;;;;;21.63;18.98;;;18.00;93.70;;;;;;5093467;28;20047;-80
2021/08/22 03:33:17;;;;;;;22.95;20.55;;;18.10;93.70;;;;;;5099622;28;20118;-82
2021/08/22 03:35:43;;;;;;;24.33;20.50;;;18.00;93.70;;;;;;5117930;28;20038;-80
2021/08/22 03:38:09;;;;;;;24.50;20.73;;;18.00;93.70;;;;;;5117958;28;20024;-82
2021/08/22 03:40:35;;;;;;;23.52;20.40;;;17.90;93.70;;;;;;5101505;28;20468;-80
2021/08/22 03:43:00;;;;;;;25.40;22.02;;;17.90;93.70;;;;;;5118927;28;20042;-85
2021/08/22 03:45:26;;;;;;;28.42;23.38;;;17.90;93.70;;;;;;5119202;28;20027;-81
2021/08/22 03:47:52;;;;;;;32.05;23.75;;;17.90;93.70;;;;;;5102396;28;20036;-82
2021/08/22 03:50:18;;;;;;;28.48;22.38;;;17.90;93.70;;;;;;5102071;28;20035;-81
2021/08/22 03:52:47;;;;;;;31.35;24.45;;;17.80;93.70;;;;;;5119633;28;20482;-80
2021/08/22 03:55:13;;;;;;;30.35;23.38;;;17.80;93.70;;;;;;5119080;28;20059;-81
2021/08/22 03:57:38;;;;;;;31.83;23.52;;;17.70;93.70;;;;;;5119183;28;20028;-82
2021/08/22 04:00:05;;;;;;;33.80;23.88;;;17.60;93.80;;;;;;5085341;28;20039;-84
2021/08/22 04:02:30;;;;;;;37.63;25.70;;;17.60;93.80;;;;;;5119061;28;20024;-81
2021/08/22 04:04:56;;;;;;;36.08;25.48;;;17.50;93.90;;;;;;5118109;28;20028;-82
2021/08/22 04:07:22;;;;;;;33.85;24.38;;;17.50;94.00;;;;;;5115791;28;20111;-82
2021/08/22 04:09:48;;;;;;;34.42;25.67;;;17.50;94.00;;;;;;5099580;28;20051;-82
2021/08/22 04:12:13;;;;;;;37.55;27.75;;;17.50;94.00;;;;;;5117379;28;20035;-81
2021/08/22 04:14:39;;;;;;;40.33;28.70;;;17.60;94.00;;;;;;5100120;28;20039;-82
2021/08/22 04:17:06;;;;;;;36.72;27.30;;;17.60;94.00;;;;;;5100128;28;20122;-86
2021/08/22 04:19:32;;;;;;;38.47;27.48;;;17.50;94.00;;;;;;5116744;28;20089;-81
2021/08/22 04:21:58;;;;;;;40.40;28.00;;;17.60;94.00;;;;;;5117584;28;20027;-81
2021/08/22 04:24:24;;;;;;;37.33;27.15;;;17.70;94.00;;;;;;5117154;28;20023;-80
2021/08/22 04:26:50;;;;;;;46.78;31.13;;;17.70;93.90;;;;;;5101032;28;20427;-81
2021/08/22 04:29:16;;;;;;;45.45;31.45;;;17.70;93.90;;;;;;5117113;28;20053;-83
2021/08/22 04:31:42;;;;;;;40.80;28.55;;;17.70;93.90;;;;;;5100392;28;20417;-80
2021/08/22 04:34:07;;;;;;;44.85;30.52;;;17.80;93.90;;;;;;5099928;28;20133;-85
2021/08/22 04:36:33;;;;;;;39.25;27.98;;;17.80;93.80;;;;;;5099626;28;20024;-79
2021/08/22 04:38:59;;;;;;;46.28;31.45;;;17.80;93.80;;;;;;5118620;28;20059;-80
2021/08/22 04:41:24;;;;;;;38.08;28.27;;;17.80;93.80;;;;;;5099835;28;20368;-79
2021/08/22 04:43:52;;;;;;;42.90;29.65;;;17.70;93.80;;;;;;5099571;28;20395;-82
2021/08/22 04:46:18;;;;;;;41.47;28.30;;;17.70;93.80;;;;;;5117122;28;20550;-79
2021/08/22 04:48:43;;;;;;;39.20;29.02;;;17.70;93.80;;;;;;5116741;28;20036;-80
2021/08/22 04:51:09;;;;;;;44.58;31.02;;;17.80;93.80;;;;;;5083295;28;20035;-86
2021/08/22 04:53:35;;;;;;;44.00;31.50;;;17.80;93.80;;;;;;5117850;28;20028;-80
2021/08/22 04:56:02;;;;;;;41.80;30.77;;;17.80;93.70;;;;;;5117486;28;20368;-80
2021/08/22 04:58:27;;;;;;;43.28;29.52;;;17.80;93.70;;;;;;5080032;28;20024;-79
2021/08/22 05:00:53;;;;;;;39.25;29.40;;;17.80;93.70;;;;;;5097419;28;20086;-78
2021/08/22 05:03:19;;;;;;;42.17;30.48;;;17.80;93.70;;;;;;5096987;28;20028;-81
2021/08/22 05:05:45;;;;;;;43.42;29.40;;;17.80;93.70;;;;;;5097038;28;20050;-81
2021/08/22 05:08:10;;;;;;;39.78;28.40;;;17.80;93.70;;;;;;5079568;28;20024;-80
2021/08/22 05:10:36;;;;;;;38.45;28.10;;;17.80;93.70;;;;;;5078329;28;20559;-80
2021/08/22 05:13:02;;;;;;;37.80;28.23;;;17.80;93.70;;;;;;5095519;28;20499;-80
2021/08/22 05:15:28;;;;;;;37.30;27.67;;;17.80;93.70;;;;;;5114980;28;20020;-80
2021/08/22 05:17:53;;;;;;;38.40;28.58;;;17.80;93.70;;;;;;5099721;28;20046;-80
2021/08/22 05:20:20;;;;;;;40.85;29.90;;;17.80;93.60;;;;;;5099732;28;20031;-80
2021/08/22 05:22:46;;;;;;;37.17;25.95;;;17.80;93.80;;;;;;5117612;28;20051;-80
2021/08/22 05:25:11;;;;;;;36.83;27.65;;;17.80;93.60;;;;;;5117084;28;20024;-79
2021/08/22 05:27:37;;;;;;;41.83;30.92;;;17.90;93.70;;;;;;5118556;28;20020;-78
2021/08/22 05:30:04;;;;;;;39.67;29.55;;;17.90;93.60;;;;;;5120972;28;20499;-79
2021/08/22 05:32:29;;;;;;;40.88;28.65;;;17.90;93.60;;;;;;5103086;28;20023;-78
2021/08/22 05:34:55;;;;;;;33.38;25.48;;;17.90;93.60;;;;;;5119962;28;20042;-79
2021/08/22 05:37:21;;;;;;;32.22;25.70;;;18.00;93.60;;;;;;5120416;28;20025;-81
2021/08/22 05:39:48;;;;;;;34.70;25.67;;;18.10;93.50;;;;;;5083064;28;20070;-78
2021/08/22 05:42:14;;;;;;;30.00;23.45;;;18.10;93.40;;;;;;5118240;28;20030;-79
2021/08/22 05:44:39;;;;;;;33.05;24.98;;;18.20;93.40;;;;;;5116016;28;20057;-78
2021/08/22 05:47:05;;;;;;;35.80;26.08;;;18.30;93.30;;;;;;5117274;28;20066;-79
2021/08/22 05:49:31;;;;;;;31.48;24.23;;;18.50;93.20;;;;;;5116302;28;20015;-81
2021/08/22 05:51:57;;;;;;;33.10;24.55;;;18.90;92.90;;;;;;5117511;28;20055;-79
2021/08/22 05:54:22;;;;;;;31.20;23.98;;;19.30;92.60;;;;;;5116604;28;20119;-81
2021/08/22 05:56:48;;;;;;;29.17;22.92;;;19.70;91.60;;;;;;5116785;28;20057;-79
2021/08/22 05:59:14;;;;;;;31.08;22.05;;;20.00;90.90;;;;;;5116402;28;20475;-79
2021/08/22 06:01:39;;;;;;;29.30;21.85;;;20.00;90.50;;;;;;5082270;28;20408;-78
2021/08/22 06:04:05;;;;;;;25.77;19.75;;;20.30;90.40;;;;;;5098949;28;20031;-78
2021/08/22 06:06:31;;;;;;;25.75;19.80;;;20.60;89.50;;;;;;5117363;28;20423;-78
2021/08/22 06:08:56;;;;;;;26.73;18.88;;;21.20;88.10;;;;;;5099010;28;20024;-79
2021/08/22 06:11:22;;;;;;;22.77;17.33;;;21.60;86.00;;;;;;5097394;28;20039;-82
2021/08/22 06:13:47;;;;;;;20.25;17.08;;;21.60;84.60;;;;;;5115251;28;20039;-78
2021/08/22 06:16:13;;;;;;;20.23;16.95;;;22.00;84.60;;;;;;5096132;28;20028;-78
2021/08/22 06:18:39;;;;;;;21.65;15.65;;;22.80;82.30;;;;;;5096199;28;20020;-79
2021/08/22 06:21:04;;;;;;;17.52;13.75;;;23.20;80.40;;;;;;5095855;28;20420;-79
2021/08/22 06:23:30;;;;;;;19.33;14.38;;;23.50;78.60;;;;;;5095644;28;20046;-79
2021/08/22 06:25:55;;;;;;;21.88;15.50;;;23.50;78.00;;;;;;5079179;28;20042;-78
2021/08/22 06:28:21;;;;;;;15.57;13.48;;;23.60;77.60;;;;;;5113905;28;20114;-78
2021/08/22 06:30:47;;;;;;;16.50;12.85;;;24.00;76.90;;;;;;5112892;28;20023;-79
2021/08/22 06:33:12;;;;;;;15.45;13.35;;;24.10;75.90;;;;;;5112979;28;20028;-79
2021/08/22 06:35:38;;;;;;;14.07;12.68;;;24.10;75.50;;;;;;5096180;28;20033;-78
2021/08/22 06:38:04;;;;;;;15.30;11.57;;;24.10;75.50;;;;;;5112481;28;20028;-78
2021/08/22 06:40:30;;;;;;;19.75;13.18;;;23.90;75.60;;;;;;5095912;28;20044;-80
2021/08/22 06:42:56;;;;;;;15.10;12.57;;;23.40;76.30;;;;;;5093103;28;20480;-80
2021/08/22 06:45:21;;;;;;;16.30;13.05;;;23.10;77.10;;;;;;5096262;28;20032;-79
2021/08/22 06:47:51;;;;;;;15.25;12.40;;;22.80;78.10;;;;;;5112676;28;20058;-79
2021/08/22 06:50:17;;;;;;;16.35;13.15;;;22.70;79.00;;;;;;5105737;28;20019;-80
2021/08/22 06:52:43;;;;;;;15.05;12.98;;;22.60;79.40;;;;;;5092500;28;20524;-83
2021/08/22 06:55:09;;;;;;;16.58;13.07;;;22.90;79.20;;;;;;5092492;28;20043;-78
2021/08/22 06:57:34;;;;;;;17.00;13.63;;;23.10;78.20;;;;;;5113131;28;20032;-80
2021/08/22 07:00:00;;;;;;;16.05;13.23;;;23.00;77.90;;;;;;5112212;28;20032;-81
2021/08/22 07:02:25;;;;;;;15.32;13.82;;;22.70;78.70;;;;;;5112424;28;20035;-81
2021/08/22 07:04:51;;;;;;;16.50;13.90;;;22.60;78.80;;;;;;5078599;28;20062;-80
2021/08/22 07:07:17;;;;;;;16.20;14.13;;;22.50;79.40;;;;;;5112694;28;20031;-80
2021/08/22 07:09:42;;;;;;;17.63;13.90;;;22.40;79.80;;;;;;5111434;28;20046;-81
2021/08/22 07:12:08;;;;;;;16.42;13.38;;;22.40;80.10;;;;;;5077663;28;20459;-81
2021/08/22 07:14:34;;;;;;;16.20;13.75;;;22.30;80.40;;;;;;5111904;28;20024;-84
2021/08/22 07:17:00;;;;;;;19.98;14.30;;;22.30;80.60;;;;;;5099967;28;20131;-81
2021/08/22 07:19:28;;;;;;;16.65;13.90;;;22.50;80.20;;;;;;5075728;28;20034;-80
2021/08/22 07:21:54;;;;;;;20.23;15.73;;;22.50;80.20;;;;;;5094460;28;20019;-82
2021/08/22 07:24:20;;;;;;;17.65;15.75;;;22.30;80.40;;;;;;5105880;28;20567;-84
2021/08/22 07:26:45;;;;;;;16.88;14.63;;;22.20;80.70;;;;;;5115786;28;20043;-84
2021/08/22 07:29:11;;;;;;;18.92;15.13;;;22.20;80.90;;;;;;5074156;28;20043;-86
2021/08/22 07:31:37;;;;;;;21.23;15.60;;;22.10;81.00;;;;;;5085645;28;20035;-87
2021/08/22 07:34:02;;;;;;;17.58;15.55;;;22.10;81.20;;;;;;5089226;28;20023;-82
2021/08/22 07:36:28;;;;;;;17.58;15.05;;;22.00;81.30;;;;;;5089047;28;20107;-83
2021/08/22 07:38:54;;;;;;;15.60;13.35;;;22.00;81.50;;;;;;5101359;28;20460;-84
2021/08/22 07:41:19;;;;;;;16.08;12.30;;;22.00;81.60;;;;;;5091456;28;20494;-83
2021/08/22 07:43:45;;;;;;;18.67;14.88;;;22.10;81.80;;;;;;5104070;28;20489;-84
2021/08/22 07:46:11;;;;;;;14.90;13.10;;;22.30;81.60;;;;;;5111027;28;20122;-79
2021/08/22 07:48:36;;;;;;;13.45;11.40;;;22.60;81.00;;;;;;5095251;28;20076;-85
2021/08/22 07:51:02;;;;;;;12.40;11.18;;;22.60;80.10;;;;;;5073114;28;20023;-83
2021/08/22 07:53:28;;;;;;;12.70;11.27;;;22.50;80.20;;;;;;5096772;28;20486;-83
2021/08/22 07:55:53;;;;;;;13.20;11.95;;;22.40;80.40;;;;;;5106764;28;20024;-84
2021/08/22 07:58:19;;;;;;;13.40;11.10;;;22.50;80.20;;;;;;5078428;28;20460;-85
2021/08/22 08:00:44;;;;;;;13.98;10.57;;;22.40;80.00;;;;;;5059190;28;20548;-84
2021/08/22 08:03:10;;;;;;;12.45;11.10;;;22.30;80.10;;;;;;5074862;28;20527;-84
2021/08/22 08:05:36;;;;;;;12.05;10.70;;;22.20;80.50;;;;;;5091114;28;20060;-85
2021/08/22 08:08:02;;;;;;;21.23;12.05;;;22.00;81.10;;;;;;5074243;28;20051;-84
2021/08/22 08:10:28;;;;;;;12.15;9.52;;;22.20;81.80;;;;;;5091533;28;20174;-85
2021/08/22 08:12:53;;;;;;;11.52;8.95;;;22.80;80.90;;;;;;5092748;28;20021;-85
2021/08/22 08:15:19;;;;;;;13.30;8.30;;;23.60;79.50;;;;;;5111452;28;20528;-86
2021/08/22 08:17:45;;;;;;;12.20;7.95;;;24.50;77.20;;;;;;5100090;28;20029;-85
2021/08/22 08:20:12;;;;;;;9.70;6.68;;;25.50;74.90;;;;;;5106632;28;20086;-85
2021/08/22 08:22:38;;;;;;;10.50;5.20;;;26.30;72.20;;;;;;5099024;28;20031;-87
2021/08/22 08:25:04;;;;;;;5.13;4.18;;;27.20;69.70;;;;;;5110899;28;20099;-86
2021/08/22 08:27:30;;;;;;;7.00;4.75;;;27.90;67.40;;;;;;5127718;28;20047;-87
2021/08/22 08:29:55;;;;;;;6.50;4.95;;;28.40;65.30;;;;;;5114374;28;20508;-85
2021/08/22 08:32:21;;;;;;;5.90;4.72;;;28.40;64.40;;;;;;5114837;28;20078;-87
2021/08/22 08:34:48;;;;;;;5.13;3.40;;;28.00;63.30;;;;;;5098688;28;20055;-85
2021/08/22 08:37:17;;;;;;;6.43;3.50;;;27.80;63.50;;;;;;5118694;28;20386;-84
2021/08/22 08:39:43;;;;;;;5.72;3.17;;;27.90;63.70;;;;;;5099505;28;20036;-87
2021/08/22 08:42:22;;;;;;;5.00;3.25;;;28.10;63.00;;;;;;5098606;28;20031;-85
2021/08/22 08:44:49;;;;;;;3.08;2.60;;;27.90;62.30;;;;;;5116158;28;20020;-85
2021/08/22 08:47:16;;;;;;;4.57;3.15;;;27.20;62.60;;;;;;5117255;28;20103;-86
2021/08/22 08:50:04;;;;;;;2.92;2.53;;;26.60;63.90;;;;;;5115620;28;20028;-84
2021/08/22 08:52:38;;;;;;;4.13;2.30;;;26.20;64.10;;;;;;5115162;28;20024;-85
2021/08/22 08:55:25;;;;;;;3.25;1.88;;;25.80;64.70;;;;;;5116291;28;20024;-84
2021/08/22 08:57:50;;;;;;;4.93;2.10;;;25.40;64.80;;;;;;5115775;28;20028;-82
2021/08/22 09:00:17;;;;;;;2.45;1.80;;;25.10;65.10;;;;;;5114776;28;20042;-83
2021/08/22 09:02:42;;;;;;;4.53;2.00;;;24.90;65.70;;;;;;5115067;28;20028;-83
2021/08/22 09:05:14;;;;;;;2.83;1.45;;;24.80;66.00;;;;;;5114158;28;20095;-81
2021/08/22 09:08:17;;;;;;;2.90;2.05;;;24.80;66.20;;;;;;5114953;28;20027;-84
2021/08/22 09:11:01;;;;;;;3.97;1.83;;;25.20;66.10;;;;;;5115338;28;20048;-83
2021/08/22 09:14:04;;;;;;;3.25;1.35;;;25.40;65.20;;;;;;5114790;28;20450;-82
2021/08/22 09:16:51;;;;;;;4.82;2.30;;;25.30;64.90;;;;;;5115640;28;20027;-84
2021/08/22 09:19:37;;;;;;;4.35;2.40;;;25.00;65.40;;;;;;5114583;28;20024;-82
2021/08/22 09:22:40;;;;;;;4.00;2.47;;;24.50;66.00;;;;;;5113562;28;20514;-82
2021/08/22 09:25:37;;;;;;;4.35;2.20;;;24.10;67.00;;;;;;5113433;28;20469;-82
2021/08/22 09:28:40;;;;;;;3.70;2.33;;;23.80;67.90;;;;;;5112971;28;20024;-83
2021/08/22 09:31:43;;;;;;;5.20;2.10;;;23.60;68.60;;;;;;5110853;28;20107;-83
2021/08/22 09:34:48;;;;;;;4.20;2.30;;;23.80;68.80;;;;;;5114694;28;20038;-82
2021/08/22 09:37:29;;;;;;;5.00;2.25;;;24.00;68.20;;;;;;5112404;28;20046;-82
2021/08/22 09:40:32;;;;;;;3.65;1.90;;;23.90;68.30;;;;;;5111642;28;20039;-81
2021/08/22 09:43:36;;;;;;;3.75;1.90;;;23.70;69.00;;;;;;5091903;28;20028;-82
2021/08/22 09:46:39;;;;;;;4.03;2.15;;;23.50;69.10;;;;;;5092040;28;20111;-81
2021/08/22 09:49:25;;;;;;;;;;;23.40;68.70;;;;;;5091959;28;20404;-82
2021/08/22 09:51:59;;;;;;;4.57;1.80;;;23.40;68.70;;;;;;5093949;28;19911;-81
2021/08/22 09:54:43;;;;;;;3.90;1.88;;;23.20;69.00;;;;;;5097832;28;20021;-81
2021/08/22 09:57:47;;;;;;;3.08;1.95;;;23.10;69.50;;;;;;5098236;28;20028;-82
2021/08/22 10:00:43;;;;;;;5.05;1.98;;;23.20;70.10;;;;;;5106145;28;20070;-82
2021/08/22 10:03:18;;;;;;;3.45;1.65;;;23.50;69.90;;;;;;5111401;28;20074;-82
2021/08/22 10:06:04;;;;;;;5.47;2.03;;;24.10;69.00;;;;;;5109328;28;20030;-82
2021/08/22 10:08:33;;;;;;;4.85;1.40;;;25.20;67.70;;;;;;5112280;28;20036;-82
2021/08/22 10:11:03;;;;;;;3.70;1.55;;;26.20;66.00;;;;;;5112864;28;20055;-81
2021/08/22 10:13:30;;;;;;;3.67;1.88;;;27.00;63.40;;;;;;5113186;28;20027;-80
2021/08/22 10:15:56;;;;;;;3.38;1.80;;;27.50;62.00;;;;;;5111751;28;20033;-81
2021/08/22 10:18:26;;;;;;;6.82;1.83;;;28.00;60.70;;;;;;5110847;28;20030;-81
2021/08/22 10:20:59;;;;;;;3.17;1.65;;;28.40;59.70;;;;;;5111269;28;20032;-82
2021/08/22 10:23:41;;;;;;;3.97;1.52;;;28.60;59.20;;;;;;5113087;28;20020;-81
2021/08/22 10:26:09;;;;;;;4.85;1.75;;;29.10;57.60;;;;;;5111564;28;20049;-81
2021/08/22 10:28:54;;;;;;;4.78;2.40;;;29.50;56.30;;;;;;5112003;28;20020;-81
2021/08/22 10:31:48;;;;;;;4.45;2.00;;;29.60;55.10;;;;;;5111258;28;20031;-79
2021/08/22 10:34:13;;;;;;;4.32;1.90;;;29.90;54.50;;;;;;5110983;28;20047;-80
2021/08/22 10:36:39;;;;;;;7.28;2.25;;;30.10;54.70;;;;;;5107762;28;20066;-80
2021/08/22 10:39:25;;;;;;;4.30;1.98;;;30.30;53.40;;;;;;5093722;28;20020;-82
2021/08/22 10:41:58;;;;;;;5.18;2.15;;;30.30;52.20;;;;;;5112499;28;20035;-80
2021/08/22 10:44:36;;;;;;;3.70;1.77;;;30.50;51.40;;;;;;5094353;28;20027;-81
2021/08/22 10:47:01;;;;;;;3.67;1.92;;;30.80;50.70;;;;;;5111453;28;20459;-83
2021/08/22 10:50:05;;;;;;;4.22;1.80;;;30.60;50.20;;;;;;5111210;28;20027;-80
2021/08/22 10:52:32;;;;;;;4.72;1.75;;;30.20;50.90;;;;;;5112451;28;20038;-79
2021/08/22 10:55:12;;;;;;;4.30;1.90;;;30.00;51.10;;;;;;5112330;28;20034;-79
2021/08/22 10:57:48;;;;;;;4.50;1.52;;;30.00;50.90;;;;;;5112715;28;20031;-80
2021/08/22 11:00:26;;;;;;;3.17;1.40;;;29.80;50.90;;;;;;5119827;28;20035;-80
2021/08/22 11:03:00;;;;;;;4.10;1.45;;;29.50;51.20;;;;;;5121880;28;20020;-81
2021/08/22 11:05:36;;;;;;;4.60;1.83;;;29.10;51.80;;;;;;5116142;28;20203;-81
2021/08/22 11:08:18;;;;;;;3.10;1.35;;;29.00;52.40;;;;;;5100355;28;20040;-81
2021/08/22 11:11:04;;;;;;;4.55;1.60;;;28.70;53.50;;;;;;5104157;28;20055;-80
2021/08/22 11:13:41;;;;;;;4.57;1.80;;;28.40;53.50;;;;;;5101944;28;20483;-80
2021/08/22 11:16:09;;;;;;;3.78;1.50;;;28.30;54.20;;;;;;5113364;28;20027;-85
2021/08/22 11:18:36;;;;;;;5.15;1.45;;;28.30;54.00;;;;;;5095977;28;20028;-80
2021/08/22 11:21:03;;;;;;;4.45;1.77;;;28.20;54.00;;;;;;5079827;28;20047;-80
2021/08/22 11:23:29;;;;;;;3.75;1.65;;;28.10;54.20;;;;;;5115077;28;20016;-81
2021/08/22 11:26:00;;;;;;;4.20;1.92;;;28.20;54.40;;;;;;5115980;28;20059;-79
2021/08/22 11:28:27;;;;;;;4.15;1.75;;;28.20;54.10;;;;;;5116515;28;20077;-80
2021/08/22 11:30:52;;;;;;;3.40;1.55;;;28.20;53.90;;;;;;5115959;28;20113;-80
2021/08/22 11:33:18;;;;;;;3.67;1.58;;;28.10;54.20;;;;;;5113994;28;20041;-79
2021/08/22 11:35:48;;;;;;;3.60;1.73;;;27.90;54.00;;;;;;5114884;28;20036;-78
2021/08/22 11:38:16;;;;;;;4.93;1.67;;;27.70;54.10;;;;;;5116615;28;20020;-82
2021/08/22 11:40:43;;;;;;;3.22;1.60;;;27.50;55.40;;;;;;5112933;28;20110;-77
2021/08/22 11:43:10;;;;;;;3.78;1.60;;;27.30;55.10;;;;;;5113453;28;20028;-79
2021/08/22 11:45:39;;;;;;;3.63;1.10;;;27.10;55.10;;;;;;5112888;28;20055;-81
2021/08/22 11:48:07;;;;;;;3.25;1.48;;;26.80;55.20;;;;;;5113921;28;20089;-80
2021/08/22 11:50:36;;;;;;;3.25;1.63;;;26.70;56.00;;;;;;5114818;28;20098;-78
2021/08/22 11:53:06;;;;;;;5.72;1.55;;;26.60;56.60;;;;;;5119499;28;20038;-79
2021/08/22 11:55:35;;;;;;;3.33;1.45;;;26.60;57.10;;;;;;5116104;28;20077;-80
2021/08/22 11:58:15;;;;;;;2.78;1.10;;;26.40;57.50;;;;;;5110736;28;20020;-79
2021/08/22 12:00:43;;;;;;;3.42;0.95;;;26.30;58.00;;;;;;5110826;28;20035;-79
2021/08/22 12:03:17;;;;;;;3.60;0.90;;;26.20;58.20;;;;;;5104073;28;20072;-80
2021/08/22 12:06:07;;;;;;;2.75;0.85;;;26.10;58.20;;;;;;5080504;28;20031;-77
2021/08/22 12:08:34;;;;;;;2.15;0.70;;;26.00;58.70;;;;;;5096217;28;20028;-78
2021/08/22 12:11:15;;;;;;;2.25;1.00;;;26.00;59.50;;;;;;5110983;28;20057;-78
2021/08/22 12:13:45;;;;;;;3.25;1.08;;;26.00;59.60;;;;;;5099940;28;20085;-78
2021/08/22 12:16:32;;;;;;;3.25;0.93;;;26.00;59.70;;;;;;5117130;28;20023;-78
2021/08/22 12:19:17;;;;;;;1.70;0.80;;;26.00;60.00;;;;;;5117983;28;20068;-78
2021/08/22 12:21:42;;;;;;;3.00;1.15;;;25.90;59.80;;;;;;5099499;28;20031;-79
2021/08/22 12:24:30;;;;;;;1.77;0.65;;;25.90;60.10;;;;;;5133489;27;20043;-79
2021/08/22 12:27:01;;;;;;;3.20;0.60;;;25.90;59.70;;;;;;5116287;28;20077;-77
2021/08/22 12:29:31;;;;;;;1.83;0.50;;;26.00;60.10;;;;;;5117623;28;20023;-79
2021/08/22 12:32:15;;;;;;;1.48;0.70;;;26.10;60.00;;;;;;5116841;28;20019;-78
2021/08/22 12:34:43;;;;;;;1.98;0.70;;;26.20;59.50;;;;;;5115843;28;20022;-78
2021/08/22 12:37:14;;;;;;;1.83;0.70;;;26.20;60.00;;;;;;5115828;28;20077;-78
2021/08/22 12:39:41;;;;;;;1.50;0.65;;;26.40;60.20;;;;;;5098152;28;20114;-80
2021/08/22 12:42:07;;;;;;;1.58;0.50;;;26.60;59.20;;;;;;5115996;28;20030;-78
2021/08/22 12:44:34;;;;;;;1.55;0.50;;;26.70;58.40;;;;;;5115410;28;20023;-79
2021/08/22 12:47:02;;;;;;;1.70;0.70;;;26.90;58.10;;;;;;5116108;28;20107;-81
2021/08/22 12:49:29;;;;;;;1.45;0.52;;;27.00;57.50;;;;;;5115730;28;20066;-80
2021/08/22 12:51:56;;;;;;;1.58;0.50;;;26.90;57.40;;;;;;5114266;28;20072;-80